createdAt,value
2019-05-14T00:00:27.183Z,96474.57
2019-05-14T00:05:28.581Z,96472.42
2019-05-14T00:10:31.991Z,96459.77
2019-05-14T00:15:32.237Z,96467.03
2019-05-14T00:20:33.595Z,96456.36
2019-05-14T00:25:34.982Z,96450.66
2019-05-14T00:30:36.424Z,96442.95
2019-05-14T00:35:37.801Z,96433.91
2019-05-14T00:40:39.177Z,96443.64
2019-05-14T00:45:41.824Z,96442.92
2019-05-14T00:50:42.166Z,96431.45
2019-05-14T00:55:43.308Z,96426.09
2019-05-14T01:00:45.552Z,96424.45
2019-05-14T01:05:46.957Z,96431.81
2019-05-14T01:10:48.313Z,96427.25
2019-05-14T01:15:52.157Z,96432.52
2019-05-14T01:20:52.135Z,96434.52
2019-05-14T01:25:53.333Z,96424.34
2019-05-14T01:30:54.712Z,96418.48
2019-05-14T01:36:02.166Z,96412.45
2019-05-14T01:41:02.162Z,96402.38
2019-05-14T01:46:03.330Z,96399.38
2019-05-14T01:51:12.456Z,96398.46
2019-05-14T01:56:14.588Z,96390.81
2019-05-14T02:01:15.957Z,96392.11
2019-05-14T02:06:17.349Z,96389.16
2019-05-14T02:11:18.735Z,96380.08
2019-05-14T02:16:21.923Z,96380.98
2019-05-14T02:21:22.842Z,96370.39
2019-05-14T02:26:24.513Z,96371.42
2019-05-14T02:31:29.042Z,96382.55
2019-05-14T02:36:30.877Z,96374.33
2019-05-14T02:41:30.212Z,96364.41
2019-05-14T02:46:31.620Z,96356.78
2019-05-14T02:51:32.987Z,96357.61
2019-05-14T02:56:34.533Z,96351.88
2019-05-14T03:01:40.003Z,96351.70
2019-05-14T03:06:39.436Z,96345.73
2019-05-14T03:11:40.408Z,96338.16
2019-05-14T03:16:40.735Z,96340.72
2019-05-14T03:21:44.301Z,96342.06
2019-05-14T03:26:45.743Z,96332.43
2019-05-14T03:31:52.963Z,96336.24
2019-05-14T03:36:52.619Z,96332.28
2019-05-14T03:41:51.680Z,96336.47
2019-05-14T03:46:56.018Z,96331.06
2019-05-14T03:51:55.301Z,96332.55
2019-05-14T03:57:00.113Z,96337.19
2019-05-14T04:01:59.627Z,96337.95
2019-05-14T04:06:59.990Z,96329.66
2019-05-14T04:12:00.999Z,96326.17
2019-05-14T04:17:09.785Z,96330.91
2019-05-14T04:22:03.982Z,96325.09
2019-05-14T04:27:11.513Z,96325.35
2019-05-14T04:32:09.398Z,96326.94
2019-05-14T04:42:43.593Z,96329.94
2019-05-14T04:47:45.190Z,96325.78
2019-05-14T04:52:49.388Z,96322.28
2019-05-14T04:57:50.000Z,96318.09
2019-05-14T05:02:50.062Z,96318.84
2019-05-14T05:07:51.676Z,96317.28
2019-05-14T05:12:53.043Z,96314.10
2019-05-14T05:17:54.416Z,96317.81
2019-05-14T05:22:56.141Z,96309.52
2019-05-14T05:27:59.762Z,96322.94
2019-05-14T05:32:59.841Z,96312.66
2019-05-14T05:38:01.078Z,96313.42
2019-05-14T05:43:02.449Z,96308.87
2019-05-14T05:48:03.833Z,96311.00
2019-05-14T05:53:05.144Z,96315.21
2019-05-14T05:58:08.661Z,96315.59
2019-05-14T06:03:10.902Z,96309.18
2019-05-14T06:08:09.351Z,96314.98
2019-05-14T06:13:13.811Z,96310.80
2019-05-14T06:18:18.065Z,96303.86
2019-05-14T06:23:13.490Z,96300.36
2019-05-14T06:28:14.826Z,96296.45
2019-05-14T06:33:16.361Z,96299.91
2019-05-14T06:38:18.521Z,96298.94
2019-05-14T06:43:19.121Z,96293.27
2019-05-14T06:48:30.879Z,96292.95
2019-05-14T06:53:21.713Z,96286.20
2019-05-14T06:58:23.143Z,96279.22
2019-05-14T07:03:24.480Z,96270.94
2019-05-14T07:08:28.274Z,96267.27
2019-05-14T07:13:29.285Z,96268.19
2019-05-14T07:18:33.291Z,96256.20
2019-05-14T07:23:29.869Z,96262.45
2019-05-14T07:28:31.398Z,96260.57
2019-05-14T07:33:33.469Z,96255.62
2019-05-14T07:38:35.517Z,96255.47
2019-05-14T07:43:39.129Z,96252.63
2019-05-14T07:48:39.332Z,96243.06
2019-05-14T07:53:42.370Z,96240.48
2019-05-14T07:58:40.949Z,96237.84
2019-05-14T08:03:42.291Z,96237.22
2019-05-14T08:08:43.612Z,96227.63
2019-05-14T08:13:44.961Z,96225.82
2019-05-14T08:18:48.459Z,96212.61
2019-05-14T08:23:48.067Z,96209.74
2019-05-14T08:28:49.187Z,96204.25
2019-05-14T08:33:50.389Z,96204.69
2019-05-14T08:38:51.729Z,96206.51
2019-05-14T08:43:53.164Z,96202.73
2019-05-14T08:48:54.496Z,96204.63
2019-05-14T08:53:55.858Z,96208.41
2019-05-14T08:58:59.092Z,96208.30
2019-05-14T09:03:59.587Z,96214.13
2019-05-14T09:08:59.977Z,96223.72
2019-05-14T09:14:01.344Z,96230.33
2019-05-14T09:19:02.708Z,96231.60
2019-05-14T09:24:04.045Z,96220.99
2019-05-14T09:29:18.490Z,96223.86
2019-05-14T09:34:09.050Z,96221.30
2019-05-14T09:39:11.800Z,96211.41
2019-05-14T09:44:09.512Z,96207.06
2019-05-14T09:49:10.919Z,96195.72
2019-05-14T09:54:12.290Z,96193.09
2019-05-14T09:59:14.365Z,96197.39
2019-05-14T10:04:16.410Z,96182.13
2019-05-14T10:09:17.813Z,96182.37
2019-05-14T10:14:20.036Z,96169.84
2019-05-14T10:19:21.486Z,96168.09
2019-05-14T10:24:22.858Z,96163.86
2019-05-14T10:29:24.199Z,96156.61
2019-05-14T10:34:25.538Z,96148.00
2019-05-14T10:39:29.549Z,96150.44
2019-05-14T10:44:29.267Z,96151.69
2019-05-14T10:49:30.147Z,96145.84
2019-05-14T10:54:31.019Z,96142.83
2019-05-14T10:59:32.372Z,96142.38
2019-05-14T11:04:34.760Z,96133.84
2019-05-14T11:09:37.876Z,96133.67
2019-05-14T11:14:38.823Z,96123.25
2019-05-14T11:19:39.366Z,96118.66
2019-05-14T11:24:40.686Z,96112.36
2019-05-14T11:29:42.040Z,96110.59
2019-05-14T11:34:43.439Z,96115.40
2019-05-14T11:39:44.775Z,96101.27
2019-05-14T11:44:48.660Z,96104.87
2019-05-14T11:49:49.191Z,96110.84
2019-05-14T11:54:49.489Z,96096.50
2019-05-14T11:59:50.313Z,96085.38
2019-05-14T12:04:51.647Z,96072.38
2019-05-14T12:09:53.739Z,96064.98
2019-05-14T12:14:58.140Z,96051.33
2019-05-14T12:19:59.430Z,96057.06
2019-05-14T12:24:59.757Z,96047.95
2019-05-14T12:30:01.109Z,96032.48
2019-05-14T12:35:02.451Z,96033.77
2019-05-14T12:40:04.809Z,96032.81
2019-05-14T12:45:09.194Z,96037.58
2019-05-14T12:50:09.345Z,96043.93
2019-05-14T12:55:09.850Z,96034.88
2019-05-14T13:00:11.204Z,96037.73
2019-05-14T13:05:12.524Z,96019.13
2019-05-14T13:10:13.876Z,96009.63
2019-05-14T13:15:15.205Z,95994.70
2019-05-14T13:20:18.586Z,95996.34
2019-05-14T13:25:18.813Z,95993.43
2019-05-14T13:30:19.321Z,95980.81
2019-05-14T13:35:20.633Z,95981.67
2019-05-14T13:40:21.965Z,95974.71
2019-05-14T13:45:24.040Z,95988.95
2019-05-14T13:50:25.506Z,95992.19
2019-05-14T13:55:30.454Z,95988.48
2019-05-14T14:00:28.320Z,95980.58
2019-05-14T14:05:29.646Z,95982.00
2019-05-14T14:10:36.233Z,95984.69
2019-05-14T14:15:34.401Z,95972.07
2019-05-14T14:20:36.118Z,95953.57
2019-05-14T14:25:39.512Z,95949.15
2019-05-14T14:30:39.462Z,95946.98
2019-05-14T14:35:50.558Z,95948.55
2019-05-14T14:40:51.878Z,95956.36
2019-05-14T14:45:53.310Z,95977.56
2019-05-14T14:50:55.491Z,95964.95
2019-05-14T14:56:00.109Z,95950.98
2019-05-14T15:00:59.430Z,95939.54
2019-05-14T15:06:03.392Z,95939.41
2019-05-14T15:11:08.316Z,95933.84
2019-05-14T15:16:12.818Z,95938.13
2019-05-14T15:21:09.695Z,95930.19
2019-05-14T15:26:11.967Z,95936.95
2019-05-14T15:31:11.731Z,95934.55
2019-05-14T15:36:13.097Z,95926.11
2019-05-14T15:41:14.450Z,95922.85
2019-05-14T15:46:18.284Z,95921.06
2019-05-14T15:51:19.463Z,95907.19
2019-05-14T15:56:19.006Z,95906.16
2019-05-14T16:01:20.358Z,95904.50
2019-05-14T16:06:22.419Z,95926.84
2019-05-14T16:11:23.762Z,95910.91
2019-05-14T16:16:25.100Z,95903.11
2019-05-14T16:21:28.760Z,95894.12
2019-05-14T16:26:29.266Z,95894.34
2019-05-14T16:31:31.623Z,95916.35
2019-05-14T16:36:32.106Z,95925.00
2019-05-14T16:41:33.461Z,95910.64
2019-05-14T16:46:34.881Z,95904.22
2019-05-14T16:51:36.238Z,95910.64
2019-05-14T16:56:41.323Z,95908.63
2019-05-14T17:01:39.866Z,95904.73
2019-05-14T17:06:41.210Z,95899.16
2019-05-14T17:11:42.589Z,95903.03
2019-05-14T17:16:44.681Z,95905.90
2019-05-14T17:21:48.546Z,95895.54
2019-05-14T17:26:48.849Z,95893.84
2019-05-14T17:31:49.308Z,95897.09
2019-05-14T17:36:50.117Z,95900.66
2019-05-14T17:41:51.489Z,95911.16
2019-05-14T17:46:52.889Z,95914.82
2019-05-14T17:51:54.969Z,95912.91
2019-05-14T17:56:59.030Z,95907.08
2019-05-14T18:01:58.470Z,95913.81
2019-05-14T18:06:59.866Z,95919.17
2019-05-14T18:12:01.237Z,95918.05
2019-05-14T18:17:02.633Z,95931.03
2019-05-14T18:22:04.068Z,95925.59
2019-05-14T18:27:05.459Z,95928.47
2019-05-14T18:32:09.040Z,95925.25
2019-05-14T18:37:13.746Z,95919.33
2019-05-14T18:42:09.733Z,95922.48
2019-05-14T18:47:11.884Z,95916.68
2019-05-14T18:52:13.201Z,95904.17
2019-05-14T18:57:14.564Z,95909.98
2019-05-14T19:02:18.287Z,95936.17
2019-05-14T19:07:18.889Z,95936.24
2019-05-14T19:12:20.458Z,95933.05
2019-05-14T19:17:23.818Z,95930.13
2019-05-14T19:22:28.983Z,95935.02
2019-05-14T19:27:32.576Z,95937.17
2019-05-14T19:32:39.181Z,95927.01
2019-05-14T19:37:41.096Z,95931.53
2019-05-14T19:42:43.568Z,95935.47
2019-05-14T19:47:45.574Z,95942.96
2019-05-14T19:52:52.066Z,95948.77
2019-05-14T19:57:58.371Z,95946.02
2019-05-14T20:03:01.853Z,95949.95
2019-05-14T20:08:08.729Z,95945.00
2019-05-14T20:13:11.329Z,95941.30
2019-05-14T20:18:14.214Z,95942.12
2019-05-14T20:23:15.588Z,95942.66
2019-05-14T20:28:18.994Z,95940.50
2019-05-14T20:33:19.234Z,95937.16
2019-05-14T20:38:20.423Z,95931.44
2019-05-14T20:43:21.773Z,95931.61
2019-05-14T20:48:23.161Z,95935.42
2019-05-14T20:53:24.574Z,95933.06
2019-05-14T20:58:27.812Z,95923.87
2019-05-14T21:03:29.038Z,95928.78
2019-05-14T21:08:30.133Z,95927.19
2019-05-14T21:13:31.471Z,95926.72
2019-05-14T21:18:35.077Z,95931.23
2019-05-14T21:23:34.204Z,95926.95
2019-05-14T21:28:35.555Z,95929.61
2019-05-14T21:33:38.903Z,95922.72
2019-05-14T21:38:40.920Z,95928.73
2019-05-14T21:43:39.660Z,95928.83
2019-05-14T21:48:41.015Z,95929.64
2019-05-14T21:53:42.369Z,95917.39
2019-05-14T21:58:43.803Z,95922.92
2019-05-14T22:03:45.903Z,95917.53
2019-05-14T22:08:48.797Z,95914.24
2019-05-14T22:13:49.701Z,95909.91
2019-05-14T22:18:50.756Z,95899.85
2019-05-14T22:23:52.137Z,95889.95
2019-05-14T22:28:53.453Z,95893.37
2019-05-14T22:33:54.793Z,95885.95
2019-05-14T22:38:57.904Z,95887.13
2019-05-14T22:44:00.054Z,95878.64
2019-05-14T22:48:59.901Z,95879.47
2019-05-14T22:54:01.256Z,95873.41
2019-05-14T22:59:02.633Z,95867.72
2019-05-14T23:04:03.982Z,95878.28
2019-05-14T23:09:05.385Z,95873.16
2019-05-14T23:14:06.780Z,95877.18
2019-05-14T23:19:08.140Z,95868.84
2019-05-14T23:24:09.484Z,95865.03
2019-05-14T23:29:10.843Z,95862.27
2019-05-14T23:34:12.951Z,95864.24
2019-05-14T23:39:14.325Z,95867.50
2019-05-14T23:44:15.716Z,95861.55
2019-05-14T23:49:18.396Z,95848.02
2019-05-14T23:54:18.445Z,95853.05
2019-05-14T23:59:19.813Z,95844.75
